Language selection

My Weather Profile Weather Topics  | 

Pacific - North Coast: Past 24 Hour Conditions

 

Langara Island

08:00 AM PST 27 November 2022
Disclaimer

This table is a summary of hourly weather conditions for the past 24 hours.
Please note that these observations might not always be representative of weather conditions over their associated marine area.

Date / Time
(PST)
Wind(knots) Conditions Visibility(km) Pressure(kPa) Air tempC) Relative humidity(%) Dew pointC)
27 November 2022
8:00 NNW 14 N/A N/A 101.6 4 80 1
7:00 NNW 16 N/A N/A 101.6 4 85 2
6:00 N 14 gust 19 N/A N/A 101.5 4 86 2
5:00 NNW 15 N/A N/A 101.5 4 91 2
4:00 NNW 15 N/A N/A 101.4 4 93 3
3:00 N 10 N/A N/A 101.3 3 92 2
2:00 NNW 10 N/A N/A 101.2 4 92 3
1:00 NW 9 gust 15 N/A N/A 101.2 4 93 3
0:00 WSW 8 gust 16 N/A N/A 101.2 4 93 3
26 November 2022
23:00 W 8 N/A N/A 101.2 4 93 3
22:00 NW 12 gust 23 N/A N/A 101.2 3 91 2
21:00 W 11 N/A N/A 101.2 4 91 2
20:00 W 16 gust 24 N/A N/A 101.1 4 89 2
19:00 WSW 12 N/A N/A 101.1 4 89 2
18:00 W 21 N/A N/A 101.1 4 84 2
17:00 WNW 21 gust 31 N/A N/A 101.1 4 84 2
16:00 WNW 17 gust 31 N/A N/A 101.1 3 84 0
15:00 WNW 22 gust 32 N/A N/A 101.0 4 86 2
14:00 W 25 gust 30 N/A N/A 101.0 4 89 2
13:00 WSW 26 gust 31 N/A N/A 100.9 4 85 2
12:00 W 25 gust 30 N/A N/A 100.9 4 88 2
11:00 W 29 gust 39 N/A N/A 100.9 4 90 2
10:00 WSW 27 gust 38 N/A N/A 100.8 3 91 2
9:00 WSW 23 N/A N/A 100.7 5 96 5
8:00 WNW 21 gust 26 N/A N/A 100.7 5 98 5

Zoom-in to make a selection

Map of Pacific - North Coast marine weather areas Middle Nomad - 46004 South Nomad - 46036 Dixon Entrance Central - 46145 South Moresby - 46147 Nanakwa Shoal - 46181 North Hecate Strait - 46183 North Nomad - 46184 South Hecate Strait - 46185 West Sea Otter - 46204 West Dixon Entrance - 46205 East Dellwood - 46207 West Moresby - 46208 Sartine Island Cape St.James Kindakun Rocks Langara Island Masset Municipal Airport Rose Spit Sandspit Airport Bella Bella Airport Bella Coola Airport Bonilla Island Cathedral Point Cumshewa Island Grey Islet Holland Rock Lucy Islands Lightstation Prince Rupert Airport
Legend:
buoy Buoy
land station Land Station

Pacific - North Coast Area

Another Region

What we are doing

Date modified: